Time;durP1;ratioP1;P1;durP2;ratioP2;P2;SDS_P1;SDS_P2;PMS_P1;PMS_P2;Temp;Humidity;BMP_temperature;BMP_pressure;BME280_temperature;BME280_humidity;BME280_pressure;Samples;Min_cycle;Max_cycle;Signal;HPM_P1;HPM_P2
2022/11/01 00:02:08;;;;;;;69.85;34.40;;;;;;;11.20;100.00;100704.66;5034010;28;20040;-85
2022/11/01 00:04:34;;;;;;;66.13;33.72;;;;;;;11.18;100.00;100703.78;5031615;28;20061;-85
2022/11/01 00:07:01;;;;;;;76.63;37.53;;;;;;;11.13;100.00;100703.84;5016374;28;20071;-85
2022/11/01 00:09:27;;;;;;;69.20;35.78;;;;;;;11.11;100.00;100697.75;5013008;28;20045;-85
2022/11/01 00:11:54;;;;;;;67.30;35.05;;;;;;;11.11;100.00;100699.50;5031301;28;20045;-86
2022/11/01 00:14:21;;;;;;;62.83;33.08;;;;;;;11.07;100.00;100685.59;5034060;28;20118;-85
2022/11/01 00:16:48;;;;;;;75.85;34.90;;;;;;;11.09;100.00;100687.31;5032848;28;20473;-85
2022/11/01 00:19:15;;;;;;;74.85;35.05;;;;;;;11.08;100.00;100689.91;5029650;28;20052;-87
2022/11/01 00:21:42;;;;;;;67.90;32.85;;;;;;;11.06;100.00;100689.06;5034040;28;20057;-87
2022/11/01 00:24:09;;;;;;;69.07;35.65;;;;;;;11.08;100.00;100700.38;5005088;28;20057;-85
2022/11/01 00:26:36;;;;;;;65.00;32.70;;;;;;;11.08;100.00;100692.53;5027383;28;20053;-85
2022/11/01 00:29:03;;;;;;;65.18;34.00;;;;;;;11.09;100.00;100694.28;5026833;28;21429;-83
2022/11/01 00:31:30;;;;;;;74.00;35.85;;;;;;;11.11;100.00;100683.78;5013363;28;20064;-83
2022/11/01 00:33:56;;;;;;;66.20;33.30;;;;;;;11.17;100.00;100683.72;5027113;28;20477;-83
2022/11/01 00:36:24;;;;;;;58.95;30.80;;;;;;;11.19;100.00;100676.72;5011198;28;20045;-85
2022/11/01 00:38:52;;;;;;;59.92;32.60;;;;;;;11.21;100.00;100681.06;5027208;28;20412;-85
2022/11/01 00:41:19;;;;;;;59.13;32.58;;;;;;;11.23;100.00;100658.31;5029204;28;20038;-85
2022/11/01 00:43:46;;;;;;;59.90;30.05;;;;;;;11.25;100.00;100660.91;5011102;28;20052;-84
2022/11/01 00:46:13;;;;;;;65.85;32.83;;;;;;;11.23;100.00;100660.94;5028513;28;20100;-84
2022/11/01 00:48:39;;;;;;;64.18;31.33;;;;;;;11.19;100.00;100645.28;5034687;28;20047;-84
2022/11/01 00:51:06;;;;;;;57.90;29.23;;;;;;;11.16;100.00;100638.31;5012951;28;20057;-84
2022/11/01 00:53:33;;;;;;;60.20;31.10;;;;;;;11.12;100.00;100641.88;5013811;28;20029;-84
2022/11/01 00:56:02;;;;;;;60.08;29.27;;;;;;;11.09;100.00;100637.53;5029299;28;20045;-83
2022/11/01 00:58:29;;;;;;;54.70;29.90;;;;;;;11.07;100.00;100634.03;5028166;28;20143;-83
2022/11/01 01:00:55;;;;;;;53.65;31.38;;;;;;;11.06;100.00;100637.53;5012894;28;20504;-84
2022/11/01 01:03:22;;;;;;;60.20;31.00;;;;;;;11.05;100.00;100632.31;5026823;28;20048;-83
2022/11/01 01:05:51;;;;;;;49.67;29.50;;;;;;;11.04;100.00;100620.09;5026833;28;20100;-84
2022/11/01 01:08:18;;;;;;;57.38;30.00;;;;;;;11.03;100.00;100620.97;5040342;28;20049;-84
2022/11/01 01:10:45;;;;;;;55.83;30.05;;;;;;;11.01;100.00;100617.53;5027322;28;20050;-84
2022/11/01 01:13:12;;;;;;;63.88;30.17;;;;;;;11.01;100.00;100621.00;5027923;28;20115;-84
2022/11/01 01:15:39;;;;;;;55.38;30.00;;;;;;;11.04;100.00;100620.09;5028198;28;20037;-84
2022/11/01 01:18:06;;;;;;;63.72;32.38;;;;;;;11.06;100.00;100624.44;5012681;28;20526;-84
2022/11/01 01:20:33;;;;;;;49.63;26.88;;;;;;;11.04;100.00;100620.09;5012021;28;20128;-83
2022/11/01 01:23:03;;;;;;;54.53;29.85;;;;;;;11.06;100.00;100623.59;4974770;28;20058;-83
2022/11/01 01:25:29;;;;;;;58.90;31.70;;;;;;;11.12;100.00;100615.66;4992688;28;20505;-82
2022/11/01 01:27:57;;;;;;;51.38;29.27;;;;;;;11.12;100.00;100612.16;4997206;28;20049;-83
2022/11/01 01:30:25;;;;;;;60.00;31.60;;;;;;;11.15;100.00;100609.53;4990012;28;20054;-83
2022/11/01 01:32:51;;;;;;;57.00;28.80;;;;;;;11.15;100.00;100597.28;5008360;28;20059;-83
2022/11/01 01:35:18;;;;;;;55.67;28.73;;;;;;;11.17;100.00;100600.75;4992225;28;20050;-83
2022/11/01 01:37:45;;;;;;;56.28;30.58;;;;;;;11.21;100.00;100596.31;5007087;28;20042;-84
2022/11/01 01:40:12;;;;;;;50.78;28.75;;;;;;;11.20;100.00;100597.25;4974715;28;20117;-85
2022/11/01 01:42:41;;;;;;;56.30;30.90;;;;;;;11.21;100.00;100591.97;5009220;28;20500;-85
2022/11/01 01:45:24;;;;;;;51.78;27.10;;;;;;;11.20;100.00;100592.00;4979040;28;20057;-84
2022/11/01 01:47:53;;;;;;;55.20;29.67;;;;;;;11.21;100.00;100577.97;4990233;28;20057;-84
2022/11/01 01:50:36;;;;;;;59.90;29.77;;;;;;;11.20;100.00;100585.00;4973139;28;20102;-84
2022/11/01 01:53:14;;;;;;;48.08;26.95;;;;;;;11.18;100.00;100580.66;4976211;28;20184;-84
2022/11/01 01:56:03;;;;;;;53.88;28.73;;;;;;;11.17;100.00;100571.94;4989272;28;20475;-83
2022/11/01 01:58:56;;;;;;;50.33;28.05;;;;;;;11.14;100.00;100552.75;4993149;28;21008;-83
2022/11/01 02:01:23;;;;;;;51.70;26.90;;;;;;;11.14;100.00;100543.13;5008841;28;20038;-84
2022/11/01 02:03:50;;;;;;;44.42;25.00;;;;;;;11.16;100.00;100540.50;4997854;28;20056;-83
2022/11/01 02:06:20;;;;;;;51.35;27.17;;;;;;;11.15;100.00;100542.25;4993899;28;20070;-83
2022/11/01 02:08:52;;;;;;;56.20;28.63;;;;;;;11.17;100.00;100535.25;4976129;28;20057;-85
2022/11/01 02:11:20;;;;;;;50.60;26.60;;;;;;;11.18;100.00;100538.72;4993800;28;20042;-83
2022/11/01 02:13:48;;;;;;;51.00;27.55;;;;;;;11.19;100.00;100530.00;4993933;28;20073;-83
2022/11/01 02:16:39;;;;;;;51.42;26.85;;;;;;;11.23;100.00;100536.91;4991880;28;20046;-84
2022/11/01 02:19:30;;;;;;;55.17;28.38;;;;;;;11.25;100.00;100541.25;4995333;28;20058;-86
2022/11/01 02:22:09;;;;;;;46.25;26.52;;;;;;;11.25;100.00;100525.53;5015445;28;20152;-84
2022/11/01 02:24:43;;;;;;;45.60;26.33;;;;;;;11.27;100.00;100524.66;5047401;28;20045;-86
2022/11/01 02:27:46;;;;;;;49.30;27.48;;;;;;;11.31;100.00;100527.19;5031292;28;20057;-83
2022/11/01 02:30:21;;;;;;;51.70;26.65;;;;;;;11.36;100.00;100519.28;5047621;28;20602;-84
2022/11/01 02:33:20;;;;;;;46.70;26.55;;;;;;;11.39;100.00;100521.84;4999072;28;20052;-83
2022/11/01 02:36:06;;;;;;;42.97;25.52;;;;;;;11.43;100.00;100518.28;5020571;28;20080;-83
2022/11/01 02:38:47;;;;;;;50.03;27.58;;;;;;;11.48;100.00;100520.84;5012839;28;20045;-83
2022/11/01 02:41:22;;;;;;;51.28;25.52;;;;;;;11.51;100.00;100510.31;5048611;28;20104;-82
2022/11/01 02:44:07;;;;;;;48.92;26.05;;;;;;;11.53;100.00;100516.41;5032112;28;20044;-83
2022/11/01 02:49:25;;;;;;;41.85;24.90;;;;;;;11.59;100.00;100516.31;5007616;28;20068;-85
2022/11/01 02:51:55;;;;;;;46.58;23.65;;;;;;;11.60;100.00;100512.78;5030988;28;20162;-84
2022/11/01 02:54:32;;;;;;;39.63;23.83;;;;;;;11.61;100.00;100511.91;5014113;28;20045;-84
2022/11/01 02:57:46;;;;;;;40.33;23.98;;;;;;;11.64;100.00;100508.38;5013365;28;20049;-84
2022/11/01 03:00:29;;;;;;;38.60;23.60;;;;;;;11.66;100.00;100507.44;5027237;28;20060;-82
2022/11/01 03:03:02;;;;;;;48.05;25.92;;;;;;;11.65;100.00;100510.09;5033097;28;20539;-84
2022/11/01 03:05:49;;;;;;;47.72;25.17;;;;;;;11.68;100.00;100513.56;5031862;28;20057;-84
2022/11/01 03:08:23;;;;;;;44.55;25.23;;;;;;;11.72;100.00;100514.34;5031629;28;20105;-83
2022/11/01 03:11:12;;;;;;;49.45;24.83;;;;;;;11.74;100.00;100518.66;5044571;28;20061;-84
2022/11/01 03:14:10;;;;;;;41.65;22.85;;;;;;;11.76;100.00;100521.28;5028993;28;20052;-84
2022/11/01 03:16:53;;;;;;;42.33;23.08;;;;;;;11.79;100.00;100516.00;5029520;28;20057;-85
2022/11/01 03:19:47;;;;;;;38.53;22.50;;;;;;;11.82;100.00;100518.56;5030111;28;20052;-84
2022/11/01 03:22:39;;;;;;;39.70;21.85;;;;;;;11.84;100.00;100505.44;5033403;28;20095;-83
2022/11/01 03:25:38;;;;;;;46.10;22.48;;;;;;;11.86;100.00;100501.91;5033827;28;20053;-84
2022/11/01 03:28:20;;;;;;;36.17;21.92;;;;;;;11.91;100.00;100502.69;5032195;28;20504;-83
2022/11/01 03:31:00;;;;;;;38.30;22.98;;;;;;;11.95;100.00;100506.13;5031230;28;20060;-83
2022/11/01 03:33:29;;;;;;;42.85;21.52;;;;;;;12.00;100.00;100516.56;5032924;28;20045;-84
2022/11/01 03:36:03;;;;;;;44.28;22.95;;;;;;;12.03;100.00;100506.00;5012629;28;20055;-85
2022/11/01 03:38:37;;;;;;;33.33;20.65;;;;;;;12.03;100.00;100495.50;4985657;28;20069;-84
2022/11/01 03:41:11;;;;;;;35.72;22.13;;;;;;;12.05;100.00;100497.22;5014192;28;20049;-84
2022/11/01 03:43:38;;;;;;;38.22;21.50;;;;;;;12.08;100.00;100504.16;5045336;28;20072;-85
2022/11/01 03:46:06;;;;;;;32.78;20.52;;;;;;;12.12;100.00;100497.97;5018027;28;20045;-84
2022/11/01 03:48:33;;;;;;;36.00;21.67;;;;;;;12.16;100.00;100491.81;4994009;28;20433;-83
2022/11/01 03:50:59;;;;;;;35.13;19.58;;;;;;;12.22;100.00;100485.56;4998909;28;20057;-84
2022/11/01 03:53:26;;;;;;;45.35;21.45;;;;;;;12.27;100.00;100477.59;5029087;28;20055;-84
2022/11/01 03:55:52;;;;;;;37.30;20.23;;;;;;;12.32;100.00;100470.50;5029520;28;20080;-84
2022/11/01 03:58:19;;;;;;;36.20;20.00;;;;;;;12.33;100.00;100473.09;5011759;28;20064;-83
2022/11/01 04:00:46;;;;;;;36.65;19.42;;;;;;;12.36;100.00;100466.94;5043757;28;20038;-85
2022/11/01 04:03:13;;;;;;;31.60;17.65;;;;;;;12.37;100.00;100452.88;5028195;28;20029;-85
2022/11/01 04:05:41;;;;;;;32.80;19.27;;;;;;;12.39;100.00;100451.13;5026536;28;20045;-85
2022/11/01 04:08:10;;;;;;;36.20;19.92;;;;;;;12.41;100.00;100480.81;5010989;28;20056;-85
2022/11/01 04:10:38;;;;;;;30.67;19.58;;;;;;;12.43;100.00;100473.78;5042394;28;20041;-85
2022/11/01 04:13:05;;;;;;;38.40;21.15;;;;;;;12.41;100.00;100473.81;5027736;28;20132;-85
2022/11/01 04:21:06;;;;;;;33.30;18.95;;;;;;;12.45;100.00;100474.63;5026443;28;20140;-84
2022/11/01 04:23:33;;;;;;;22.15;14.80;;;;;;;12.46;100.00;100436.94;5026938;28;20153;-83
2022/11/01 04:26:00;;;;;;;28.05;17.05;;;;;;;12.48;100.00;100442.19;5018785;28;20172;-84
2022/11/01 04:28:27;;;;;;;30.48;17.90;;;;;;;12.52;100.00;100467.50;5028207;28;20049;-83
2022/11/01 04:30:54;;;;;;;27.70;16.48;;;;;;;12.58;100.00;100457.72;5028169;28;20688;-83
2022/11/01 04:33:20;;;;;;;32.85;17.50;;;;;;;12.64;100.00;100487.38;5029115;28;20545;-83
2022/11/01 04:35:47;;;;;;;30.17;17.55;;;;;;;12.66;100.00;100485.56;5030507;28;20925;-83
2022/11/01 04:38:14;;;;;;;27.70;15.80;;;;;;;12.66;100.00;100489.09;5028399;28;20041;-83
2022/11/01 04:40:42;;;;;;;31.45;16.05;;;;;;;12.67;100.00;100493.44;5027369;28;20059;-83
2022/11/01 04:43:10;;;;;;;27.02;14.93;;;;;;;12.67;100.00;100490.81;5030302;28;20550;-83
2022/11/01 04:45:37;;;;;;;32.75;17.15;;;;;;;12.69;100.00;100496.03;5031211;28;20528;-83
2022/11/01 04:48:15;;;;;;;26.40;16.95;;;;;;;12.68;100.00;100495.16;5011561;28;20041;-83
2022/11/01 04:50:44;;;;;;;30.13;15.13;;;;;;;12.69;100.00;100499.50;5043757;28;20073;-84
2022/11/01 04:53:11;;;;;;;23.30;14.90;;;;;;;12.72;100.00;100506.47;5030058;28;20057;-83
2022/11/01 04:55:37;;;;;;;27.52;15.60;;;;;;;12.73;100.00;100502.94;5029432;28;20093;-84
2022/11/01 04:58:05;;;;;;;22.88;14.38;;;;;;;12.77;100.00;100501.13;5029252;28;20602;-84
2022/11/01 05:00:33;;;;;;;25.17;15.80;;;;;;;12.80;100.00;100486.19;5025080;28;20084;-84
2022/11/01 05:03:08;;;;;;;23.25;14.80;;;;;;;12.83;100.00;100483.47;5007703;28;20113;-84
2022/11/01 05:05:36;;;;;;;26.15;15.77;;;;;;;12.83;100.00;100491.38;5013814;28;20502;-84
2022/11/01 05:08:12;;;;;;;24.92;14.10;;;;;;;12.83;100.00;100495.75;5026875;28;20056;-83
2022/11/01 05:10:42;;;;;;;30.58;15.88;;;;;;;12.81;100.00;100493.13;5025232;28;20099;-84
2022/11/01 05:13:11;;;;;;;26.15;14.45;;;;;;;12.82;100.00;100494.03;5023398;28;20049;-84
2022/11/01 05:15:38;;;;;;;26.38;15.43;;;;;;;12.85;100.00;100502.72;5026638;28;20534;-83
2022/11/01 05:18:05;;;;;;;30.90;15.50;;;;;;;12.87;100.00;100497.44;5025207;28;20053;-83
2022/11/01 05:20:32;;;;;;;25.63;15.35;;;;;;;12.90;100.00;100492.09;5025137;28;20057;-83
2022/11/01 05:23:04;;;;;;;23.27;13.43;;;;;;;12.96;100.00;100499.84;5025121;28;21442;-86
2022/11/01 05:25:32;;;;;;;21.65;14.02;;;;;;;12.99;100.00;100505.03;5013381;28;20053;-83
2022/11/01 05:28:13;;;;;;;23.88;13.13;;;;;;;12.95;100.00;100503.38;5028861;28;20053;-83
2022/11/01 05:30:42;;;;;;;18.30;11.63;;;;;;;12.99;100.00;100512.91;5027221;28;20658;-84
2022/11/01 05:33:11;;;;;;;25.60;13.13;;;;;;;13.02;100.00;100511.97;5028148;28;20072;-83
2022/11/01 05:35:38;;;;;;;19.35;11.88;;;;;;;13.07;100.00;100515.38;5031891;28;20559;-84
2022/11/01 05:38:13;;;;;;;16.25;9.77;;;;;;;13.16;100.00;100525.69;5033083;28;20543;-86
2022/11/01 05:40:41;;;;;;;18.73;11.48;;;;;;;13.31;100.00;100532.41;5017051;28;20051;-85
2022/11/01 05:43:07;;;;;;;15.80;9.02;;;;;;;13.49;100.00;100533.78;5028291;28;20052;-83
2022/11/01 05:45:34;;;;;;;15.70;8.55;;;;;;;13.63;100.00;100529.94;5031202;28;20241;-85
2022/11/01 05:50:50;;;;;;;12.68;7.85;;;;;;;13.92;100.00;100542.38;5020775;28;20123;-83
2022/11/01 05:53:21;;;;;;;16.33;8.60;;;;;;;14.03;100.00;100534.25;5032033;28;20048;-85
2022/11/01 05:55:48;;;;;;;12.32;8.60;;;;;;;14.07;100.00;100542.00;5033845;28;20050;-83
2022/11/01 05:58:17;;;;;;;13.57;7.07;;;;;;;14.10;100.00;100541.06;5030566;28;20064;-84
2022/11/01 06:00:44;;;;;;;16.67;7.47;;;;;;;14.11;100.00;100550.69;5032613;28;20042;-84
2022/11/01 06:03:10;;;;;;;11.68;7.80;;;;;;;14.11;100.00;100553.34;5034269;28;20082;-83
2022/11/01 06:05:40;;;;;;;11.20;7.30;;;;;;;14.10;100.00;100556.00;5034909;28;20068;-83
2022/11/01 06:08:09;;;;;;;9.52;6.50;;;;;;;14.12;100.00;100557.69;5030829;28;20495;-81
2022/11/01 06:10:35;;;;;;;13.45;7.75;;;;;;;14.14;100.00;100561.13;5013676;28;20092;-85
2022/11/01 06:13:02;;;;;;;13.35;6.82;;;;;;;14.18;100.00;100562.81;5016780;28;20049;-83
2022/11/01 06:15:29;;;;;;;9.10;6.70;;;;;;;14.21;100.00;100559.25;4997415;28;20048;-83
2022/11/01 06:17:59;;;;;;;9.18;5.75;;;;;;;14.21;100.00;100560.09;5011447;28;20052;-81
2022/11/01 06:20:31;;;;;;;7.93;5.75;;;;;;;14.25;100.00;100570.53;5031667;28;20040;-83
2022/11/01 06:23:01;;;;;;;13.38;7.20;;;;;;;14.27;100.00;100564.31;5029474;28;20678;-82
2022/11/01 06:25:28;;;;;;;7.90;5.50;;;;;;;14.30;100.00;100561.63;5029594;28;20136;-82
2022/11/01 06:27:55;;;;;;;10.63;5.20;;;;;;;14.29;100.00;100564.28;5028427;28;20049;-82
2022/11/01 06:30:22;;;;;;;8.05;5.07;;;;;;;14.27;100.00;100558.22;5010615;28;20070;-82
2022/11/01 06:32:48;;;;;;;8.15;5.28;;;;;;;14.29;100.00;100557.28;5010460;28;20535;-82
2022/11/01 06:35:15;;;;;;;8.60;5.20;;;;;;;14.33;100.00;100563.31;5028741;28;20905;-84
2022/11/01 06:37:42;;;;;;;9.63;5.63;;;;;;;14.37;100.00;100557.91;5046432;28;20045;-84
2022/11/01 06:40:10;;;;;;;9.75;6.35;;;;;;;14.39;100.00;100556.13;5046470;28;20064;-82
2022/11/01 06:42:38;;;;;;;14.98;8.38;;;;;;;14.44;100.00;100560.41;5013239;28;20049;-85
2022/11/01 06:45:05;;;;;;;10.60;7.43;;;;;;;14.45;100.00;100568.25;5037707;28;20033;-85
2022/11/01 06:47:33;;;;;;;18.90;10.88;;;;;;;14.45;100.00;100567.41;5037108;28;20030;-85
2022/11/01 06:50:00;;;;;;;9.88;5.38;;;;;;;14.48;100.00;100573.44;5034120;28;20097;-85
2022/11/01 06:52:27;;;;;;;7.97;5.72;;;;;;;14.55;100.00;100576.78;5018084;28;20121;-86
2022/11/01 06:54:54;;;;;;;7.80;4.53;;;;;;;14.61;100.00;100579.25;5035919;28;20136;-85
2022/11/01 06:57:21;;;;;;;16.13;5.82;;;;;;;14.68;100.00;100583.47;5018063;28;20113;-86
2022/11/01 06:59:47;;;;;;;9.95;5.03;;;;;;;14.70;100.00;100588.72;5020244;28;20060;-85
2022/11/01 07:02:14;;;;;;;15.75;6.75;;;;;;;14.68;100.00;100594.03;5019685;28;20121;-85
2022/11/01 07:04:40;;;;;;;8.98;5.63;;;;;;;14.65;100.00;100604.66;5024460;28;20053;-86
2022/11/01 07:07:07;;;;;;;8.93;5.70;;;;;;;14.63;100.00;100619.59;5027348;28;20057;-87
2022/11/01 07:09:35;;;;;;;70.70;13.95;;;;;;;14.59;100.00;100606.53;5021951;28;20049;-85
2022/11/01 07:12:02;;;;;;;14.15;6.03;;;;;;;14.56;100.00;100611.00;5039891;28;20037;-84
2022/11/01 07:14:29;;;;;;;12.27;5.18;;;;;;;14.54;100.00;100602.25;5036160;28;20053;-85
2022/11/01 07:16:56;;;;;;;8.73;5.05;;;;;;;14.56;100.00;100613.63;5017580;28;20168;-85
2022/11/01 07:19:23;;;;;;;7.22;4.03;;;;;;;14.60;100.00;100622.31;5022686;28;20486;-86
2022/11/01 07:21:50;;;;;;;5.78;4.32;;;;;;;14.58;100.00;100631.16;5020460;28;20065;-86
2022/11/01 07:24:17;;;;;;;8.82;5.07;;;;;;;14.64;100.00;100628.38;5034081;28;20041;-86
2022/11/01 07:26:43;;;;;;;24.85;7.15;;;;;;;14.66;100.00;100619.53;5035629;28;20048;-85
2022/11/01 07:29:10;;;;;;;8.70;4.72;;;;;;;14.71;100.00;100611.53;5021704;28;20041;-86
2022/11/01 07:31:37;;;;;;;17.38;6.13;;;;;;;14.77;100.00;100621.03;5035160;28;20064;-87
2022/11/01 07:34:05;;;;;;;10.23;4.30;;;;;;;14.81;100.00;100618.28;5024018;28;20050;-86
2022/11/01 07:36:31;;;;;;;8.45;4.43;;;;;;;14.86;100.00;100620.75;5019772;28;20057;-85
2022/11/01 07:38:58;;;;;;;11.02;4.78;;;;;;;14.91;100.00;100623.28;5015798;28;20056;-86
2022/11/01 07:41:25;;;;;;;6.50;4.95;;;;;;;14.95;100.00;100631.06;5036653;28;20045;-86
2022/11/01 07:43:57;;;;;;;6.88;4.72;;;;;;;14.98;100.00;100632.75;5034087;28;20532;-85
2022/11/01 07:46:24;;;;;;;10.23;5.22;;;;;;;14.99;100.00;100629.22;5019799;28;20050;-86
2022/11/01 07:48:50;;;;;;;9.07;4.38;;;;;;;15.00;100.00;100639.69;5020920;28;20045;-86
2022/11/01 07:51:18;;;;;;;5.55;3.90;;;;;;;14.99;100.00;100638.00;5053298;28;20080;-86
2022/11/01 07:53:44;;;;;;;8.82;4.38;;;;;;;15.02;100.00;100637.91;5036449;28;20619;-85
2022/11/01 07:56:11;;;;;;;10.32;5.25;;;;;;;15.05;100.00;100637.81;5032922;28;20077;-85
2022/11/01 07:58:42;;;;;;;11.98;4.97;;;;;;;15.07;100.00;100632.50;5021999;28;20056;-85
2022/11/01 08:01:09;;;;;;;6.60;4.10;;;;;;;15.10;100.00;100631.56;5040405;28;20537;-86
2022/11/01 08:03:35;;;;;;;7.72;5.50;;;;;;;15.14;100.00;100639.31;5055390;28;20034;-85
2022/11/01 08:08:44;;;;;;;10.15;4.80;;;;;;;15.21;100.00;100645.28;5021874;28;20663;-85
2022/11/01 08:11:11;;;;;;;8.40;3.92;;;;;;;15.22;99.36;100653.16;5023842;28;20503;-85
2022/11/01 08:13:38;;;;;;;10.73;4.97;;;;;;;15.25;98.69;100665.38;5035698;28;20033;-85
2022/11/01 08:16:05;;;;;;;5.68;4.05;;;;;;;15.27;98.20;100666.22;5021488;28;20098;-84
2022/11/01 08:18:33;;;;;;;9.45;5.18;;;;;;;15.30;98.42;100660.00;5038240;28;20044;-84
2022/11/01 08:21:00;;;;;;;9.55;5.65;;;;;;;15.33;97.36;100659.91;5035827;28;20057;-86
2022/11/01 08:23:26;;;;;;;8.70;5.00;;;;;;;15.38;97.20;100666.78;5033094;28;20041;-85
2022/11/01 08:25:53;;;;;;;4.25;3.65;;;;;;;15.44;97.09;100664.88;5036286;28;20100;-85
2022/11/01 08:28:21;;;;;;;8.48;5.60;;;;;;;15.50;96.25;100664.69;5035404;28;20056;-85
2022/11/01 08:30:50;;;;;;;11.60;5.18;;;;;;;15.55;95.87;100661.00;5027551;28;20057;-85
2022/11/01 08:33:16;;;;;;;9.57;4.65;;;;;;;15.62;95.02;100658.16;5021993;28;20037;-84
2022/11/01 08:35:44;;;;;;;7.00;5.00;;;;;;;15.67;94.81;100661.53;5036082;28;20487;-86
2022/11/01 08:38:11;;;;;;;8.70;4.43;;;;;;;15.69;94.10;100670.28;5056969;28;20109;-85
2022/11/01 08:40:39;;;;;;;8.13;4.25;;;;;;;15.74;93.06;100667.53;5015500;28;20041;-85
2022/11/01 08:43:06;;;;;;;8.90;4.22;;;;;;;15.77;93.11;100673.56;5037707;28;20517;-86
2022/11/01 08:45:32;;;;;;;6.45;4.50;;;;;;;15.83;92.77;100681.31;5023733;28;20049;-85
2022/11/01 08:48:03;;;;;;;7.40;4.45;;;;;;;15.88;92.81;100682.03;5027063;28;20532;-85
2022/11/01 08:50:32;;;;;;;5.55;4.47;;;;;;;15.99;91.97;100688.78;5040744;28;20065;-85
2022/11/01 08:53:07;;;;;;;8.73;4.38;;;;;;;16.11;91.41;100693.66;5059794;28;20061;-85
2022/11/01 08:55:37;;;;;;;5.85;4.18;;;;;;;16.22;90.34;100695.97;5046164;28;20038;-84
2022/11/01 08:58:04;;;;;;;6.47;4.45;;;;;;;16.34;89.78;100695.56;5040459;28;20072;-85
2022/11/01 09:00:31;;;;;;;7.35;3.67;;;;;;;16.46;89.51;100704.88;5038777;28;20025;-86
2022/11/01 09:02:57;;;;;;;9.43;3.85;;;;;;;16.53;88.55;100690.56;5037335;28;20506;-85
2022/11/01 09:05:24;;;;;;;4.05;3.75;;;;;;;16.64;87.94;100697.28;5039439;28;20105;-84
2022/11/01 09:07:59;;;;;;;6.55;3.50;;;;;;;16.68;86.73;100701.53;5035716;28;20037;-85
2022/11/01 09:10:28;;;;;;;7.57;3.50;;;;;;;16.69;86.96;100700.63;5023210;28;20049;-84
2022/11/01 09:12:55;;;;;;;5.00;3.75;;;;;;;16.65;86.58;100707.78;5037863;28;20067;-84
2022/11/01 09:15:24;;;;;;;4.50;3.05;;;;;;;16.64;86.31;100708.69;5023161;28;20052;-85
2022/11/01 09:17:51;;;;;;;7.18;4.60;;;;;;;16.60;86.36;100706.22;5040791;28;20052;-84
2022/11/01 09:20:19;;;;;;;6.25;3.88;;;;;;;16.54;86.63;100705.50;5031876;28;20661;-86
2022/11/01 09:22:51;;;;;;;11.02;4.20;;;;;;;16.52;86.73;100701.19;5005821;28;20054;-85
2022/11/01 09:25:18;;;;;;;7.13;3.90;;;;;;;16.51;86.72;100707.38;5035371;28;20050;-85
2022/11/01 09:27:47;;;;;;;6.07;4.47;;;;;;;16.50;87.39;100708.28;5022845;28;20197;-85
2022/11/01 09:30:14;;;;;;;9.32;4.30;;;;;;;16.51;87.26;100712.66;5043906;28;20523;-86
2022/11/01 09:32:44;;;;;;;7.63;3.75;;;;;;;16.55;86.95;100711.66;5034773;28;20464;-85
2022/11/01 09:35:10;;;;;;;5.40;4.07;;;;;;;16.61;86.71;100713.22;5039591;28;20092;-86
2022/11/01 09:37:37;;;;;;;7.50;3.63;;;;;;;16.62;85.88;100726.41;5039783;28;20041;-86
2022/11/01 09:40:04;;;;;;;5.80;3.80;;;;;;;16.58;86.04;100721.25;5037127;28;20049;-85
2022/11/01 09:42:38;;;;;;;6.15;3.90;;;;;;;16.59;86.02;100730.91;5018929;28;20044;-84
2022/11/01 09:45:17;;;;;;;7.40;4.35;;;;;;;16.61;85.71;100723.78;5020777;28;20050;-86
2022/11/01 09:47:49;;;;;;;6.47;3.55;;;;;;;16.63;85.77;100725.47;5037943;28;20042;-86
2022/11/01 09:50:33;;;;;;;5.28;4.40;;;;;;;16.59;85.27;100723.84;5036973;28;20057;-85
2022/11/01 09:53:03;;;;;;;6.50;4.10;;;;;;;16.58;85.23;100726.53;5020438;28;20050;-85
2022/11/01 09:55:58;;;;;;;7.28;3.95;;;;;;;16.57;84.92;100723.03;5015225;28;20108;-85
2022/11/01 09:59:00;;;;;;;6.28;3.78;;;;;;;16.61;84.16;100734.34;5015855;28;20077;-85
2022/11/01 10:01:42;;;;;;;6.05;3.38;;;;;;;16.58;84.30;100731.81;5017831;28;20060;-85
2022/11/01 10:04:44;;;;;;;5.40;3.83;;;;;;;16.60;84.29;100737.94;5032141;28;20050;-85
2022/11/01 10:07:59;;;;;;;5.90;3.20;;;;;;;16.60;83.88;100732.66;5036595;28;20522;-85
2022/11/01 10:10:47;;;;;;;;;;;;;;;16.72;82.49;100737.50;5034722;28;20048;-85
2022/11/01 10:13:36;;;;;;;4.60;2.55;;;;;;;16.90;81.59;100735.19;5034781;28;19931;-86
2022/11/01 10:16:24;;;;;;;3.67;2.28;;;;;;;17.03;79.97;100737.38;5036965;28;20037;-85
2022/11/01 10:19:14;;;;;;;4.32;3.03;;;;;;;17.14;79.45;100752.88;5029541;28;20073;-85
2022/11/01 10:21:53;;;;;;;9.65;2.90;;;;;;;17.20;78.64;100757.94;5021501;28;20076;-84
2022/11/01 10:24:25;;;;;;;6.38;4.03;;;;;;;17.20;78.90;100757.09;5034730;28;20045;-84
2022/11/01 10:27:13;;;;;;;2.80;2.13;;;;;;;17.16;77.97;100771.34;5019076;28;20056;-85
2022/11/01 10:29:58;;;;;;;4.10;1.92;;;;;;;16.99;75.69;100777.22;5036626;28;20044;-85
2022/11/01 10:32:50;;;;;;;8.82;2.58;;;;;;;16.80;74.84;100780.41;5038285;28;20084;-84
2022/11/01 10:35:21;;;;;;;5.18;2.15;;;;;;;16.62;74.44;100795.13;5032291;28;20044;-86
2022/11/01 10:38:07;;;;;;;2.42;1.42;;;;;;;16.50;71.72;100788.44;5053300;28;20562;-85
2022/11/01 10:40:42;;;;;;;3.17;1.30;;;;;;;16.45;70.95;100797.41;5036883;28;20435;-85
2022/11/01 10:43:19;;;;;;;4.68;1.40;;;;;;;16.40;71.11;100796.69;5019413;28;20052;-85
2022/11/01 10:45:49;;;;;;;3.90;2.58;;;;;;;16.36;70.74;100799.44;5024415;28;20226;-85
2022/11/01 10:48:33;;;;;;;2.22;1.35;;;;;;;16.40;67.68;100776.44;5022104;28;20131;-84
2022/11/01 10:51:02;;;;;;;;;;;;;;;16.43;65.08;100802.75;5039849;28;20242;-87
2022/11/01 10:53:39;;;;;;;8.88;1.20;;;;;;;16.43;64.88;100802.75;5037748;28;19928;-85
2022/11/01 10:56:11;;;;;;;3.35;0.88;;;;;;;16.44;63.15;100806.25;5053716;28;20111;-85
2022/11/01 10:58:59;;;;;;;2.08;1.33;;;;;;;16.41;63.13;100806.34;5037084;28;20091;-84
2022/11/01 11:01:30;;;;;;;2.60;0.60;;;;;;;16.45;62.23;100802.69;5037622;28;20041;-86
2022/11/01 11:04:00;;;;;;;4.53;1.35;;;;;;;16.48;61.68;100800.81;5018882;28;20044;-86
2022/11/01 11:06:27;;;;;;;2.85;1.00;;;;;;;16.44;62.11;100800.97;5031455;28;20109;-86
2022/11/01 11:08:56;;;;;;;3.28;1.27;;;;;;;16.47;62.40;100796.44;5001082;28;20046;-85
2022/11/01 11:11:35;;;;;;;1.73;0.70;;;;;;;16.53;61.24;100800.66;5035864;28;20064;-86
2022/11/01 11:14:07;;;;;;;5.70;0.60;;;;;;;16.56;60.64;100802.34;5054052;28;20064;-86
2022/11/01 11:16:46;;;;;;;2.05;0.80;;;;;;;16.58;60.52;100790.81;5033174;28;20105;-85
2022/11/01 11:19:18;;;;;;;2.75;0.90;;;;;;;16.53;59.37;100790.09;5036640;28;20045;-86
2022/11/01 11:21:50;;;;;;;3.70;0.85;;;;;;;16.63;56.99;100788.88;5038367;28;20122;-86
2022/11/01 11:24:21;;;;;;;3.78;0.82;;;;;;;16.61;55.53;100792.50;5029903;28;20401;-88
2022/11/01 11:26:55;;;;;;;3.58;0.75;;;;;;;16.69;53.68;100801.06;5017972;28;20046;-85
2022/11/01 11:29:47;;;;;;;2.80;0.65;;;;;;;16.66;53.00;100817.00;5019193;28;20050;-85
2022/11/01 11:32:19;;;;;;;2.25;0.45;;;;;;;16.62;53.43;100800.41;5035760;28;20395;-86
2022/11/01 11:35:03;;;;;;;3.90;0.40;;;;;;;16.65;53.35;100812.66;5018434;28;20045;-85
2022/11/01 11:37:34;;;;;;;1.85;1.10;;;;;;;16.69;52.09;100822.22;5012444;28;20109;-85
2022/11/01 11:40:21;;;;;;;2.88;0.52;;;;;;;16.71;50.20;100830.94;5020611;28;20053;-85
2022/11/01 11:43:15;;;;;;;1.50;1.00;;;;;;;16.69;49.83;100832.78;5033413;28;20128;-85
2022/11/01 11:45:42;;;;;;;2.13;0.50;;;;;;;16.66;48.64;100832.88;5032528;28;20060;-85
2022/11/01 11:48:22;;;;;;;2.80;0.68;;;;;;;16.68;46.50;100826.63;5036861;28;20686;-85